Time;durP1;ratioP1;P1;durP2;ratioP2;P2;SDS_P1;SDS_P2;PMS_P1;PMS_P2;Temp;Humidity;BMP_temperature;BMP_pressure;BME280_temperature;BME280_humidity;BME280_pressure;Samples;Min_cycle;Max_cycle;Signal;HPM_P1;HPM_P2
2024/02/07 00:00:49;;;;;;;4.40;2.57;;;8.70;99.90;;;;;;4994330;28;20183;-68
2024/02/07 00:03:14;;;;;;;4.17;2.67;;;8.60;99.90;;;;;;4994041;28;20211;-68
2024/02/07 00:05:40;;;;;;;3.13;2.20;;;8.60;99.90;;;;;;4994141;28;20202;-68
2024/02/07 00:08:06;;;;;;;4.70;2.50;;;8.50;99.90;;;;;;4994444;28;20168;-68
2024/02/07 00:10:32;;;;;;;4.13;2.30;;;8.40;99.90;;;;;;4993996;28;20185;-68
2024/02/07 00:12:58;;;;;;;6.23;2.23;;;8.40;99.90;;;;;;4993048;28;20598;-68
2024/02/07 00:15:23;;;;;;;3.97;3.27;;;8.40;99.90;;;;;;4994179;28;20502;-67
2024/02/07 00:17:49;;;;;;;4.93;2.73;;;8.40;99.90;;;;;;4993955;28;20903;-69
2024/02/07 00:20:15;;;;;;;3.97;2.90;;;8.40;99.90;;;;;;4993848;28;20533;-69
2024/02/07 00:22:41;;;;;;;5.23;2.80;;;8.40;99.90;;;;;;4994361;28;20190;-69
2024/02/07 00:25:07;;;;;;;3.57;2.67;;;8.40;99.90;;;;;;4997813;28;20259;-69
2024/02/07 00:27:33;;;;;;;7.43;2.97;;;8.30;99.90;;;;;;4998129;28;20168;-69
2024/02/07 00:29:59;;;;;;;3.60;2.90;;;8.20;99.90;;;;;;4997467;28;20419;-68
2024/02/07 00:32:25;;;;;;;3.33;2.63;;;8.20;99.90;;;;;;4997557;28;20429;-69
2024/02/07 00:34:51;;;;;;;4.00;3.00;;;8.30;99.90;;;;;;4997799;28;20418;-69
2024/02/07 00:37:16;;;;;;;3.33;2.80;;;8.30;99.90;;;;;;4997572;28;20207;-69
2024/02/07 00:39:44;;;;;;;3.97;3.00;;;8.30;99.90;;;;;;4997433;28;20633;-69
2024/02/07 00:42:10;;;;;;;4.43;2.47;;;8.30;99.90;;;;;;4997441;28;20286;-69
2024/02/07 00:44:39;;;;;;;6.40;2.53;;;8.30;99.90;;;;;;4997421;28;20474;-69
2024/02/07 00:47:05;;;;;;;5.73;3.60;;;8.20;99.90;;;;;;4997656;28;20407;-69
2024/02/07 00:49:31;;;;;;;3.90;3.27;;;8.20;99.90;;;;;;4997545;28;20439;-69
2024/02/07 00:51:57;;;;;;;4.50;3.30;;;8.10;99.90;;;;;;4997217;28;20608;-69
2024/02/07 00:54:24;;;;;;;3.60;2.90;;;8.10;99.90;;;;;;4997099;28;20460;-69
2024/02/07 00:56:50;;;;;;;4.00;2.63;;;8.20;99.90;;;;;;4997335;28;20465;-69
2024/02/07 00:59:15;;;;;;;6.30;3.00;;;8.30;99.90;;;;;;4997342;28;20412;-70
2024/02/07 01:01:41;;;;;;;3.47;2.70;;;8.30;99.90;;;;;;4996983;28;20447;-69
2024/02/07 01:04:07;;;;;;;3.40;2.60;;;8.30;99.90;;;;;;4997066;28;20180;-69
2024/02/07 01:06:33;;;;;;;4.67;2.73;;;8.40;99.90;;;;;;4995763;28;20262;-69
2024/02/07 01:08:58;;;;;;;2.87;2.57;;;8.40;99.90;;;;;;4996767;28;20276;-69
2024/02/07 01:11:24;;;;;;;2.60;2.40;;;8.40;99.90;;;;;;4997300;28;20192;-69
2024/02/07 01:13:50;;;;;;;5.63;3.43;;;8.40;99.90;;;;;;4997350;28;20179;-69
2024/02/07 01:16:16;;;;;;;3.93;2.47;;;8.40;99.90;;;;;;4996088;28;20171;-69
2024/02/07 01:18:42;;;;;;;4.63;3.03;;;8.40;99.90;;;;;;4996678;28;20256;-69
2024/02/07 01:21:08;;;;;;;4.13;3.17;;;8.50;99.90;;;;;;4997109;28;20414;-69
2024/02/07 01:23:37;;;;;;;5.77;3.10;;;8.50;99.90;;;;;;4996829;28;20870;-69
2024/02/07 01:26:03;;;;;;;4.40;3.00;;;8.70;99.90;;;;;;4997246;28;20468;-69
2024/02/07 01:28:28;;;;;;;4.30;3.00;;;8.70;99.90;;;;;;4996715;28;20425;-69
2024/02/07 01:30:54;;;;;;;3.23;2.80;;;8.60;99.90;;;;;;4996822;28;20252;-68
2024/02/07 01:33:20;;;;;;;4.23;3.07;;;8.50;99.90;;;;;;4996717;28;20200;-68
2024/02/07 01:35:46;;;;;;;3.80;2.90;;;8.40;99.90;;;;;;4995482;28;20169;-68
2024/02/07 01:38:17;;;;;;;4.80;2.83;;;8.50;99.90;;;;;;4996604;28;20591;-68
2024/02/07 01:40:47;;;;;;;6.70;3.50;;;8.70;99.90;;;;;;4996647;28;20403;-69
2024/02/07 01:43:13;;;;;;;5.70;3.40;;;8.60;99.90;;;;;;4996560;28;20432;-69
2024/02/07 01:45:39;;;;;;;3.23;2.57;;;8.60;99.90;;;;;;4996336;28;20407;-68
2024/02/07 01:48:06;;;;;;;4.43;3.17;;;8.50;99.90;;;;;;4996601;28;20407;-68
2024/02/07 01:50:38;;;;;;;4.73;3.20;;;8.40;99.90;;;;;;5003637;28;20909;-69
2024/02/07 01:53:05;;;;;;;4.10;3.10;;;8.40;99.90;;;;;;5016095;28;20453;-68
2024/02/07 01:55:32;;;;;;;7.33;3.30;;;8.40;99.90;;;;;;5015771;28;20422;-68
2024/02/07 01:58:00;;;;;;;5.67;3.20;;;8.50;99.90;;;;;;5015791;28;20880;-68
2024/02/07 02:00:27;;;;;;;5.70;3.33;;;8.30;99.90;;;;;;4999423;28;20414;-68
2024/02/07 02:02:53;;;;;;;5.43;2.77;;;8.20;99.90;;;;;;4996575;28;20835;-69
2024/02/07 02:05:19;;;;;;;3.87;3.20;;;8.20;99.90;;;;;;4996452;28;20505;-68
2024/02/07 02:07:47;;;;;;;3.57;3.07;;;8.30;99.90;;;;;;4996395;28;20445;-69
2024/02/07 02:10:13;;;;;;;4.17;2.93;;;8.30;99.90;;;;;;4996081;28;20776;-70
2024/02/07 02:12:41;;;;;;;3.50;2.77;;;8.30;99.90;;;;;;4996025;28;20437;-69
2024/02/07 02:15:07;;;;;;;5.73;3.27;;;8.30;99.90;;;;;;4994865;28;20512;-69
2024/02/07 02:17:33;;;;;;;7.20;3.20;;;8.30;99.90;;;;;;4995942;28;20555;-69
2024/02/07 02:19:59;;;;;;;5.37;3.17;;;8.30;99.90;;;;;;4995920;28;20913;-69
2024/02/07 02:22:46;;;;;;;6.03;3.23;;;8.40;99.90;;;;;;4995682;28;20786;-69
2024/02/07 02:25:44;;;;;;;6.47;3.27;;;8.50;99.90;;;;;;4995528;28;21037;-69
2024/02/07 02:28:29;;;;;;;6.40;3.37;;;8.40;99.90;;;;;;4994454;28;20510;-68
2024/02/07 02:30:58;;;;;;;4.10;2.70;;;8.40;99.90;;;;;;4974928;28;20467;-69
2024/02/07 02:33:26;;;;;;;5.00;3.33;;;8.40;99.90;;;;;;4975876;28;20425;-69
2024/02/07 02:35:53;;;;;;;4.20;2.90;;;8.40;99.90;;;;;;4974723;28;20420;-69
2024/02/07 02:38:22;;;;;;;4.00;3.00;;;8.50;99.90;;;;;;4975592;28;20519;-70
2024/02/07 02:40:48;;;;;;;3.90;2.77;;;8.50;99.90;;;;;;4994520;28;20416;-69
2024/02/07 02:43:14;;;;;;;3.83;2.60;;;8.50;99.90;;;;;;4995434;28;21064;-70
2024/02/07 02:45:40;;;;;;;9.03;2.70;;;8.60;99.90;;;;;;4995360;28;20440;-70
2024/02/07 02:48:06;;;;;;;4.97;2.43;;;8.60;99.90;;;;;;4994722;28;20171;-69
2024/02/07 02:50:32;;;;;;;2.90;2.70;;;8.60;99.90;;;;;;4995009;28;20423;-70
2024/02/07 02:52:58;;;;;;;5.50;2.83;;;8.60;99.90;;;;;;4994980;28;20435;-70
2024/02/07 02:55:28;;;;;;;6.63;2.77;;;8.70;99.90;;;;;;4995324;28;20226;-69
2024/02/07 02:57:58;;;;;;;5.27;2.50;;;8.70;99.90;;;;;;4995604;28;20877;-70
2024/02/07 03:00:26;;;;;;;4.90;2.60;;;8.70;99.90;;;;;;4995113;28;20415;-70
2024/02/07 03:02:55;;;;;;;3.10;2.67;;;8.70;99.90;;;;;;4994813;28;20961;-69
2024/02/07 03:05:39;;;;;;;4.47;2.63;;;8.70;99.90;;;;;;4995326;28;20419;-69
2024/02/07 03:08:16;;;;;;;4.40;2.80;;;8.70;99.90;;;;;;4995009;28;20768;-68
2024/02/07 03:10:43;;;;;;;4.03;2.67;;;8.70;99.90;;;;;;4994607;28;20416;-68
2024/02/07 03:13:10;;;;;;;5.20;2.03;;;8.70;99.90;;;;;;4994512;28;20437;-68
2024/02/07 03:15:36;;;;;;;3.20;2.40;;;8.80;99.90;;;;;;4994330;28;20412;-68
2024/02/07 03:18:01;;;;;;;3.40;2.73;;;8.80;99.90;;;;;;4993227;28;20457;-67
2024/02/07 03:20:28;;;;;;;3.83;2.97;;;8.90;99.90;;;;;;4994636;28;20489;-69
2024/02/07 03:22:56;;;;;;;3.80;2.63;;;9.00;99.90;;;;;;4994400;28;20199;-67
2024/02/07 03:25:22;;;;;;;3.37;2.47;;;9.00;99.90;;;;;;4994698;28;20834;-69
2024/02/07 03:27:48;;;;;;;5.10;3.00;;;9.10;99.90;;;;;;4994542;28;20416;-68
2024/02/07 03:30:21;;;;;;;4.07;2.50;;;9.00;99.90;;;;;;4994355;28;20262;-68
2024/02/07 03:32:47;;;;;;;5.43;3.07;;;9.00;99.90;;;;;;4994387;28;20809;-68
2024/02/07 03:35:16;;;;;;;4.00;2.43;;;9.10;99.90;;;;;;4994267;28;20513;-68
2024/02/07 03:37:43;;;;;;;4.73;2.33;;;9.10;99.90;;;;;;4994730;28;20799;-68
2024/02/07 03:40:16;;;;;;;5.13;2.83;;;9.10;99.90;;;;;;4994724;28;20617;-68
2024/02/07 03:42:42;;;;;;;3.50;2.63;;;9.10;99.90;;;;;;4995693;28;20520;-68
2024/02/07 03:45:09;;;;;;;4.70;3.37;;;9.20;99.90;;;;;;5012345;28;20470;-68
2024/02/07 03:47:39;;;;;;;7.33;2.93;;;9.20;99.90;;;;;;5014478;28;20411;-68
2024/02/07 03:50:10;;;;;;;5.30;3.00;;;9.30;99.90;;;;;;5002375;28;20889;-68
2024/02/07 03:52:42;;;;;;;3.50;2.80;;;9.20;99.90;;;;;;4994967;28;20473;-68
2024/02/07 03:55:08;;;;;;;4.13;2.70;;;9.30;99.90;;;;;;4994660;28;20404;-68
2024/02/07 03:57:37;;;;;;;5.60;3.07;;;9.30;99.90;;;;;;4994320;28;20973;-68
2024/02/07 04:00:08;;;;;;;5.20;2.80;;;9.30;99.90;;;;;;4996010;28;20468;-68
2024/02/07 04:02:37;;;;;;;6.10;2.67;;;9.20;99.90;;;;;;4998245;28;20440;-68
2024/02/07 04:05:04;;;;;;;4.13;2.50;;;9.30;99.90;;;;;;4998713;28;20414;-67
2024/02/07 04:07:30;;;;;;;3.70;2.90;;;9.30;99.90;;;;;;4998149;28;20418;-69
2024/02/07 04:09:56;;;;;;;2.80;2.60;;;9.20;99.90;;;;;;4998184;28;20408;-67
2024/02/07 05:17:19;;;;;;;2.60;2.33;;;9.70;99.90;;;;;;4995986;28;20450;-69
2024/02/07 05:19:46;;;;;;;5.60;2.30;;;9.60;99.90;;;;;;4995754;28;20413;-69
2024/02/07 05:22:12;;;;;;;2.60;2.20;;;9.50;99.90;;;;;;4995933;28;20490;-69
2024/02/07 05:24:38;;;;;;;3.07;2.40;;;9.40;99.90;;;;;;4992630;28;20425;-69
2024/02/07 05:27:06;;;;;;;2.77;1.83;;;9.50;99.90;;;;;;4996120;28;20405;-69
2024/02/07 05:29:33;;;;;;;4.53;3.17;;;9.50;99.90;;;;;;4990019;28;20221;-69
2024/02/07 05:31:59;;;;;;;3.30;2.33;;;9.50;99.90;;;;;;4976843;28;20429;-69
2024/02/07 05:34:25;;;;;;;8.33;2.60;;;9.60;99.90;;;;;;4996373;28;20515;-69
2024/02/07 05:36:50;;;;;;;4.00;3.20;;;9.50;99.90;;;;;;4998456;28;20596;-69
2024/02/07 05:39:16;;;;;;;4.07;2.87;;;9.50;99.90;;;;;;4995491;28;20408;-69
2024/02/07 05:41:43;;;;;;;4.10;2.77;;;9.60;99.90;;;;;;4995689;28;20247;-69
2024/02/07 05:44:09;;;;;;;4.43;2.97;;;9.60;99.90;;;;;;4995216;28;20195;-69
2024/02/07 05:46:36;;;;;;;4.20;2.67;;;9.60;99.90;;;;;;4995367;28;20940;-70
2024/02/07 05:49:02;;;;;;;5.50;4.13;;;9.50;99.90;;;;;;4995451;28;20752;-70
2024/02/07 05:51:27;;;;;;;5.40;3.97;;;9.60;99.90;;;;;;4995231;28;20431;-70
2024/02/07 05:53:57;;;;;;;17.00;11.97;;;9.60;99.90;;;;;;4995555;28;20687;-69
2024/02/07 05:56:23;;;;;;;5.17;3.50;;;9.50;99.90;;;;;;4995216;28;20337;-69
2024/02/07 05:58:51;;;;;;;3.33;2.53;;;9.60;99.90;;;;;;4995419;28;20442;-69
2024/02/07 06:01:21;;;;;;;6.03;4.10;;;9.60;99.90;;;;;;4976441;28;20420;-69
2024/02/07 06:03:50;;;;;;;5.50;5.00;;;9.50;99.90;;;;;;4975800;28;20506;-71
2024/02/07 06:06:19;;;;;;;3.10;2.57;;;9.60;99.90;;;;;;4976077;28;20440;-71
2024/02/07 06:08:49;;;;;;;5.50;3.07;;;9.50;99.90;;;;;;4976041;28;20408;-71
2024/02/07 06:11:15;;;;;;;4.73;2.80;;;9.60;99.90;;;;;;4995380;28;20963;-70
2024/02/07 06:13:41;;;;;;;4.50;2.97;;;9.50;99.90;;;;;;4994773;28;20805;-70
2024/02/07 06:16:07;;;;;;;3.60;2.90;;;9.60;99.90;;;;;;4995551;28;20414;-69
2024/02/07 06:18:32;;;;;;;4.20;3.30;;;9.50;99.90;;;;;;4994795;28;20675;-69
2024/02/07 06:20:58;;;;;;;2.93;2.60;;;9.60;99.90;;;;;;4994376;28;20178;-69
2024/02/07 06:23:24;;;;;;;4.80;3.10;;;9.60;99.90;;;;;;4995178;28;20193;-69
2024/02/07 06:25:49;;;;;;;4.90;2.63;;;9.60;99.90;;;;;;4995749;28;20166;-69
2024/02/07 06:28:15;;;;;;;3.03;2.73;;;9.50;99.90;;;;;;4994831;28;20170;-68
2024/02/07 06:30:41;;;;;;;7.07;3.17;;;9.50;99.90;;;;;;4980386;28;20183;-70
2024/02/07 06:33:08;;;;;;;6.03;3.53;;;9.60;99.90;;;;;;4993239;28;20447;-69
2024/02/07 06:35:34;;;;;;;3.47;3.17;;;9.50;99.90;;;;;;4994723;28;20181;-69
2024/02/07 06:38:00;;;;;;;3.97;3.17;;;9.60;99.90;;;;;;4994499;28;20451;-70
2024/02/07 06:40:27;;;;;;;5.73;3.57;;;9.60;99.90;;;;;;4982483;28;20171;-73
2024/02/07 06:42:53;;;;;;;6.17;3.30;;;9.60;99.90;;;;;;4975000;28;20183;-71
2024/02/07 06:45:18;;;;;;;3.50;3.03;;;9.60;99.90;;;;;;4975187;28;20505;-70
2024/02/07 06:47:44;;;;;;;8.03;4.43;;;9.60;99.90;;;;;;4974912;28;20186;-69
2024/02/07 06:50:10;;;;;;;4.73;3.17;;;9.60;99.90;;;;;;4984779;28;20176;-70
2024/02/07 06:52:35;;;;;;;7.30;3.40;;;9.60;99.90;;;;;;4994665;28;20760;-69
2024/02/07 06:55:01;;;;;;;5.00;3.20;;;9.70;99.90;;;;;;4994065;28;20519;-70
2024/02/07 06:57:26;;;;;;;3.00;2.70;;;9.70;99.90;;;;;;4993983;28;20250;-69
2024/02/07 06:59:52;;;;;;;3.40;3.10;;;9.80;99.90;;;;;;4986565;28;20174;-69
2024/02/07 07:02:17;;;;;;;4.80;2.90;;;9.80;99.90;;;;;;4974310;28;20217;-70
2024/02/07 07:04:43;;;;;;;4.10;3.60;;;9.80;99.90;;;;;;4974475;28;20170;-70
2024/02/07 07:07:08;;;;;;;5.27;3.50;;;9.80;99.90;;;;;;4974420;28;20239;-69
2024/02/07 07:09:34;;;;;;;5.57;3.40;;;10.00;99.90;;;;;;4978488;28;20853;-71
2024/02/07 07:11:59;;;;;;;6.27;3.60;;;10.00;99.90;;;;;;4993845;28;20683;-71
2024/02/07 07:14:25;;;;;;;5.10;3.80;;;10.00;99.90;;;;;;4994208;28;20632;-69
2024/02/07 07:16:50;;;;;;;4.83;3.60;;;9.90;99.90;;;;;;4993710;28;20203;-69
2024/02/07 07:19:16;;;;;;;4.60;3.03;;;10.00;99.90;;;;;;4991924;28;20171;-73
2024/02/07 07:21:41;;;;;;;5.90;3.10;;;10.00;99.90;;;;;;4956929;28;20319;-72
2024/02/07 07:24:07;;;;;;;4.23;2.93;;;10.00;99.90;;;;;;4977095;28;20507;-69
2024/02/07 07:26:33;;;;;;;5.90;3.43;;;10.00;99.90;;;;;;4974785;28;20179;-71
2024/02/07 07:28:58;;;;;;;6.50;3.60;;;9.90;99.90;;;;;;4974114;28;20173;-71
2024/02/07 07:31:25;;;;;;;4.63;3.30;;;10.00;99.90;;;;;;4993650;28;20667;-70
2024/02/07 07:33:50;;;;;;;7.60;2.77;;;10.00;99.90;;;;;;4993758;28;20181;-70
2024/02/07 07:36:16;;;;;;;3.60;2.63;;;10.00;99.90;;;;;;4994131;28;20491;-71
2024/02/07 07:38:42;;;;;;;7.57;3.50;;;10.00;99.90;;;;;;4992997;28;20188;-71
2024/02/07 07:41:08;;;;;;;4.47;3.60;;;10.10;99.90;;;;;;4993430;28;20414;-71
2024/02/07 07:43:33;;;;;;;5.37;3.10;;;10.10;99.90;;;;;;4993617;28;20186;-72
2024/02/07 07:45:59;;;;;;;10.83;3.60;;;10.20;99.90;;;;;;4993747;28;20246;-71
2024/02/07 07:48:26;;;;;;;5.30;3.67;;;10.20;99.90;;;;;;4993588;28;20192;-71
2024/02/07 07:50:51;;;;;;;5.47;3.27;;;10.20;99.90;;;;;;4993681;28;20191;-71
2024/02/07 07:53:17;;;;;;;6.13;3.60;;;10.30;99.90;;;;;;4993416;28;20980;-71
2024/02/07 07:55:42;;;;;;;5.17;3.40;;;10.30;99.90;;;;;;4993220;28;20184;-70
2024/02/07 07:58:08;;;;;;;6.47;3.33;;;10.30;99.90;;;;;;4993413;28;20193;-71
2024/02/07 08:00:35;;;;;;;3.20;2.90;;;10.20;99.90;;;;;;4981318;28;20177;-70
2024/02/07 08:03:02;;;;;;;5.73;3.63;;;10.30;99.90;;;;;;4972006;28;20700;-71
2024/02/07 08:05:28;;;;;;;9.93;4.23;;;10.30;99.90;;;;;;4973740;28;20405;-71
2024/02/07 08:07:53;;;;;;;4.43;3.30;;;10.40;99.90;;;;;;4973767;28;20405;-71
2024/02/07 08:10:20;;;;;;;5.90;3.40;;;10.40;99.90;;;;;;4983996;28;20410;-71
2024/02/07 08:12:45;;;;;;;5.90;3.17;;;10.40;99.90;;;;;;4993086;28;20235;-71
2024/02/07 08:15:11;;;;;;;7.87;3.90;;;10.40;99.90;;;;;;4992070;28;20834;-71
2024/02/07 08:17:36;;;;;;;8.27;3.50;;;10.50;99.90;;;;;;4992684;28;20206;-70
2024/02/07 08:20:03;;;;;;;4.93;3.30;;;10.50;99.90;;;;;;4992633;28;20648;-71
2024/02/07 08:22:28;;;;;;;10.50;4.20;;;10.50;99.90;;;;;;4991081;28;20571;-71
2024/02/07 08:24:54;;;;;;;6.10;3.70;;;10.60;99.90;;;;;;4992604;28;20409;-71
2024/02/07 08:27:20;;;;;;;3.80;2.90;;;10.70;99.90;;;;;;4984495;28;20173;-71
2024/02/07 08:29:46;;;;;;;5.80;3.63;;;10.70;99.90;;;;;;4990599;28;20196;-71
2024/02/07 08:32:12;;;;;;;4.93;3.53;;;10.70;99.90;;;;;;4993052;28;20952;-71
2024/02/07 08:34:38;;;;;;;8.70;3.33;;;10.60;99.90;;;;;;4993254;28;20470;-71
2024/02/07 08:37:06;;;;;;;3.73;3.43;;;10.60;99.90;;;;;;4993106;28;20589;-71
2024/02/07 08:39:31;;;;;;;13.10;3.93;;;10.80;99.90;;;;;;4978105;28;20177;-71
2024/02/07 08:41:57;;;;;;;3.90;2.73;;;10.70;99.90;;;;;;4974058;28;20776;-71
2024/02/07 08:44:23;;;;;;;5.37;3.40;;;10.70;99.90;;;;;;4973986;28;20170;-72
2024/02/07 08:46:48;;;;;;;4.77;3.30;;;10.70;99.90;;;;;;4977356;28;20167;-71
2024/02/07 08:49:16;;;;;;;7.00;3.30;;;10.70;99.90;;;;;;4989246;28;20655;-71
2024/02/07 08:51:43;;;;;;;4.73;3.10;;;10.70;99.90;;;;;;4996544;28;20173;-70
2024/02/07 08:54:08;;;;;;;3.97;3.10;;;10.80;99.90;;;;;;4996374;28;20411;-71
2024/02/07 08:56:34;;;;;;;3.60;2.97;;;10.90;99.90;;;;;;4996249;28;20429;-71
2024/02/07 08:59:00;;;;;;;5.60;3.13;;;10.90;99.90;;;;;;4986166;28;20581;-71
2024/02/07 09:01:25;;;;;;;5.07;3.10;;;10.90;99.90;;;;;;4977648;28;20176;-71
2024/02/07 09:03:51;;;;;;;4.10;2.53;;;10.80;99.90;;;;;;4977212;28;20228;-70
2024/02/07 09:06:16;;;;;;;4.73;3.50;;;10.70;99.90;;;;;;4976995;28;20176;-71
2024/02/07 09:08:42;;;;;;;9.43;4.00;;;10.70;99.90;;;;;;4984922;28;20174;-71
2024/02/07 09:11:08;;;;;;;3.80;3.07;;;10.80;99.90;;;;;;4996321;28;20694;-71
2024/02/07 09:13:33;;;;;;;10.50;3.23;;;10.70;99.90;;;;;;4996492;28;20277;-71
2024/02/07 09:15:59;;;;;;;5.30;3.00;;;10.80;99.90;;;;;;4996275;28;20174;-69
2024/02/07 09:18:24;;;;;;;4.17;3.00;;;10.90;99.90;;;;;;4990695;28;20597;-70
2024/02/07 09:20:50;;;;;;;8.20;3.60;;;10.90;99.90;;;;;;4976699;28;20171;-70
2024/02/07 09:23:15;;;;;;;5.47;3.07;;;10.90;99.90;;;;;;4976602;28;20194;-70
2024/02/07 09:25:41;;;;;;;3.30;3.00;;;10.90;99.90;;;;;;4976981;28;20169;-70
2024/02/07 09:28:06;;;;;;;3.30;2.97;;;10.90;99.90;;;;;;4979137;28;20177;-72
2024/02/07 09:30:33;;;;;;;4.77;3.50;;;10.90;99.90;;;;;;4984146;28;20234;-71
2024/02/07 09:32:59;;;;;;;7.30;3.90;;;10.80;99.90;;;;;;4976532;28;20203;-70
2024/02/07 09:35:24;;;;;;;6.20;3.50;;;10.80;99.90;;;;;;4979399;28;20420;-70
2024/02/07 09:37:50;;;;;;;4.17;3.23;;;10.90;99.90;;;;;;4976402;28;20247;-71
2024/02/07 09:40:16;;;;;;;5.97;3.70;;;11.10;99.90;;;;;;4995537;28;20236;-71
2024/02/07 09:42:43;;;;;;;5.30;3.40;;;11.10;99.90;;;;;;4997881;28;20598;-71
2024/02/07 09:45:12;;;;;;;5.13;3.50;;;11.10;99.90;;;;;;4997930;28;20172;-71
2024/02/07 09:47:48;;;;;;;3.80;3.00;;;11.00;99.90;;;;;;5001725;28;20404;-70
2024/02/07 09:50:15;;;;;;;5.47;3.40;;;11.00;99.90;;;;;;4976247;28;20393;-70
2024/02/07 09:52:42;;;;;;;4.90;3.50;;;11.10;99.90;;;;;;4974818;28;20487;-70
2024/02/07 09:55:08;;;;;;;5.10;3.50;;;11.20;99.90;;;;;;4976290;28;20413;-70
2024/02/07 09:57:34;;;;;;;6.67;3.47;;;11.40;99.90;;;;;;4974627;28;20548;-69
2024/02/07 09:59:59;;;;;;;5.23;3.17;;;11.30;99.90;;;;;;4992871;28;20841;-69
2024/02/07 10:02:26;;;;;;;4.70;3.33;;;11.30;99.90;;;;;;4995014;28;20208;-70
2024/02/07 10:04:54;;;;;;;4.47;3.20;;;11.30;99.90;;;;;;4995175;28;20207;-71
2024/02/07 10:07:20;;;;;;;4.60;2.70;;;11.30;99.90;;;;;;4996073;28;20409;-69
2024/02/07 10:09:49;;;;;;;6.83;3.10;;;11.20;99.90;;;;;;4995198;28;20514;-69
2024/02/07 10:12:17;;;;;;;5.00;3.50;;;11.30;99.90;;;;;;4995219;28;20196;-68
2024/02/07 10:14:44;;;;;;;5.27;3.00;;;11.50;99.90;;;;;;4995400;28;20442;-72
2024/02/07 10:17:11;;;;;;;4.03;3.07;;;11.60;99.90;;;;;;4995272;28;20504;-69
2024/02/07 10:19:37;;;;;;;6.40;2.93;;;11.50;99.90;;;;;;4981047;28;20406;-73
2024/02/07 10:22:17;;;;;;;5.70;3.50;;;11.60;99.90;;;;;;4975695;28;20477;-69
2024/02/07 10:24:44;;;;;;;4.50;3.03;;;11.50;99.90;;;;;;4975607;28;20152;-71
2024/02/07 10:27:16;;;;;;;5.40;3.00;;;11.60;99.90;;;;;;4975464;28;20479;-69
2024/02/07 10:29:42;;;;;;;3.90;3.27;;;11.70;99.90;;;;;;4990117;28;20395;-68
2024/02/07 10:32:14;;;;;;;5.10;3.10;;;11.70;99.90;;;;;;4994847;28;20527;-71
2024/02/07 10:34:39;;;;;;;7.50;3.53;;;11.70;99.90;;;;;;4994885;28;20153;-71
2024/02/07 10:37:05;;;;;;;3.40;2.57;;;11.50;99.90;;;;;;4978568;28;20786;-71
2024/02/07 10:39:30;;;;;;;4.67;3.03;;;11.70;99.90;;;;;;4988240;28;20253;-72
2024/02/07 10:41:58;;;;;;;6.17;2.80;;;11.80;99.90;;;;;;4994381;28;20192;-71
2024/02/07 10:44:24;;;;;;;3.00;2.53;;;12.00;99.90;;;;;;4994243;28;20200;-70
2024/02/07 10:46:58;;;;;;;3.70;3.20;;;12.00;99.90;;;;;;4994476;28;20436;-71
2024/02/07 10:49:23;;;;;;;3.33;2.70;;;11.90;99.90;;;;;;4980935;28;20173;-68
2024/02/07 10:51:49;;;;;;;4.17;2.63;;;12.00;99.90;;;;;;4975313;28;20406;-70
2024/02/07 10:54:15;;;;;;;3.97;3.00;;;12.00;99.90;;;;;;4975236;28;20551;-71
2024/02/07 10:56:43;;;;;;;3.83;2.50;;;11.80;99.90;;;;;;4975198;28;20293;-71
2024/02/07 10:59:11;;;;;;;8.40;2.63;;;11.90;99.90;;;;;;4984613;28;20771;-71
2024/02/07 11:01:38;;;;;;;2.83;2.50;;;11.90;99.90;;;;;;4994482;28;20421;-71
2024/02/07 11:04:04;;;;;;;2.93;2.13;;;11.90;99.90;;;;;;4994609;28;20465;-71
2024/02/07 11:06:32;;;;;;;3.73;2.57;;;11.70;99.90;;;;;;4994295;28;20398;-72
2024/02/07 11:08:59;;;;;;;3.13;2.37;;;11.70;99.90;;;;;;4985462;28;20491;-71
2024/02/07 11:11:25;;;;;;;3.93;2.43;;;11.70;99.90;;;;;;4974936;28;20817;-72
2024/02/07 11:13:56;;;;;;;3.20;2.63;;;11.60;99.90;;;;;;4973167;28;20425;-71
2024/02/07 11:16:22;;;;;;;5.43;2.40;;;11.60;99.90;;;;;;4974540;28;20888;-71
2024/02/07 11:18:48;;;;;;;3.27;2.50;;;11.60;99.90;;;;;;4981449;28;20583;-71
2024/02/07 11:21:23;;;;;;;5.20;2.93;;;11.60;99.90;;;;;;4994412;28;20446;-72
2024/02/07 11:23:50;;;;;;;3.70;2.20;;;11.70;99.90;;;;;;4994653;28;20182;-71
2024/02/07 11:26:17;;;;;;;4.47;2.40;;;11.80;99.90;;;;;;4994451;28;20451;-71
2024/02/07 11:28:43;;;;;;;6.63;2.73;;;11.90;99.90;;;;;;4988300;28;20447;-71
2024/02/07 11:31:09;;;;;;;4.27;2.70;;;11.90;99.90;;;;;;4974408;28;20591;-71
2024/02/07 11:33:40;;;;;;;4.77;2.77;;;12.20;99.90;;;;;;4974469;28;20452;-71
2024/02/07 11:36:18;;;;;;;4.47;2.63;;;12.10;99.90;;;;;;4976910;28;20412;-71
2024/02/07 11:39:02;;;;;;;20.40;5.20;;;12.00;99.90;;;;;;4980175;28;20456;-71
2024/02/07 11:41:27;;;;;;;7.30;3.77;;;12.20;99.90;;;;;;4993819;28;20881;-71
2024/02/07 11:44:02;;;;;;;5.70;3.07;;;12.30;99.90;;;;;;4993758;28;20427;-72
2024/02/07 11:46:28;;;;;;;4.93;3.00;;;12.30;99.90;;;;;;4993524;28;20182;-72
2024/02/07 11:48:53;;;;;;;4.43;2.50;;;12.50;99.90;;;;;;4986032;28;20415;-71
2024/02/07 11:51:23;;;;;;;2.97;2.30;;;12.50;99.90;;;;;;4973927;28;20654;-72
2024/02/07 11:53:48;;;;;;;7.60;3.83;;;12.60;99.90;;;;;;4973783;28;20193;-71
2024/02/07 11:56:20;;;;;;;3.40;1.97;;;12.50;99.90;;;;;;4974006;28;20472;-68
2024/02/07 11:58:49;;;;;;;3.77;1.97;;;12.60;99.90;;;;;;4979746;28;20190;-70
2024/02/07 12:01:16;;;;;;;3.27;2.23;;;12.80;99.90;;;;;;4993484;28;20404;-70
2024/02/07 12:03:42;;;;;;;3.00;2.20;;;13.10;99.90;;;;;;4993555;28;20526;-71
2024/02/07 12:06:09;;;;;;;2.40;1.60;;;13.00;99.90;;;;;;4993584;28;20505;-72
2024/02/07 12:08:36;;;;;;;2.57;2.00;;;13.50;99.90;;;;;;4993259;28;20172;-71
2024/02/07 12:11:04;;;;;;;5.13;2.00;;;13.90;99.90;;;;;;4993442;28;20405;-73
2024/02/07 12:13:31;;;;;;;3.63;1.97;;;14.10;99.90;;;;;;4992936;28;20421;-70
2024/02/07 12:15:59;;;;;;;2.13;1.80;;;14.60;99.90;;;;;;4993922;28;20787;-70
2024/02/07 12:18:26;;;;;;;2.47;2.00;;;14.30;99.90;;;;;;4990436;28;20558;-70
2024/02/07 12:20:51;;;;;;;1.70;1.60;;;14.90;99.90;;;;;;4976393;28;20551;-70
2024/02/07 12:23:17;;;;;;;4.93;2.30;;;15.10;99.90;;;;;;4976203;28;20509;-72
2024/02/07 12:25:42;;;;;;;3.00;2.00;;;15.10;99.90;;;;;;4978000;28;20675;-71
2024/02/07 12:28:10;;;;;;;3.17;1.60;;;15.00;99.90;;;;;;4977731;28;20542;-71
2024/02/07 12:30:36;;;;;;;6.80;1.93;;;14.60;99.90;;;;;;4997203;28;20178;-71
2024/02/07 12:33:02;;;;;;;2.93;1.90;;;14.30;99.90;;;;;;4996665;28;20423;-72
2024/02/07 12:35:28;;;;;;;2.87;1.67;;;13.90;99.90;;;;;;4996924;28;20191;-70
2024/02/07 12:37:58;;;;;;;3.20;1.30;;;14.00;99.90;;;;;;4996757;28;20541;-72
2024/02/07 12:40:28;;;;;;;2.50;2.00;;;14.10;99.90;;;;;;4985406;28;20163;-72
2024/02/07 12:42:56;;;;;;;1.80;1.60;;;13.70;99.90;;;;;;4997126;28;20479;-70
2024/02/07 12:45:22;;;;;;;5.70;1.90;;;13.40;99.90;;;;;;4996771;28;20403;-74
2024/02/07 12:47:47;;;;;;;3.00;1.57;;;13.40;99.90;;;;;;4996147;28;20437;-72
2024/02/07 12:50:13;;;;;;;1.80;1.47;;;13.10;99.90;;;;;;4979978;28;20537;-72
2024/02/07 12:52:39;;;;;;;4.80;1.67;;;13.00;99.90;;;;;;4977185;28;20191;-72
2024/02/07 12:55:05;;;;;;;2.53;1.53;;;13.00;99.90;;;;;;4976425;28;20180;-72
2024/02/07 12:57:31;;;;;;;1.73;1.63;;;12.90;99.90;;;;;;4977190;28;20202;-72
2024/02/07 13:00:09;;;;;;;2.20;1.30;;;12.90;99.90;;;;;;4991559;28;20402;-72
2024/02/07 13:02:35;;;;;;;2.67;1.67;;;12.90;99.90;;;;;;4996604;28;20204;-73
2024/02/07 13:05:00;;;;;;;3.20;1.77;;;13.00;99.90;;;;;;4997823;28;20487;-72
2024/02/07 13:07:26;;;;;;;3.20;1.77;;;13.00;99.90;;;;;;5001268;28;20173;-72
2024/02/07 13:09:51;;;;;;;1.67;1.50;;;12.60;99.90;;;;;;4986685;28;20176;-73
2024/02/07 13:12:17;;;;;;;2.33;1.73;;;12.50;99.90;;;;;;4985097;28;20280;-72
2024/02/07 13:14:43;;;;;;;2.60;2.23;;;12.60;99.90;;;;;;4999759;28;20599;-71
2024/02/07 13:17:09;;;;;;;5.77;2.37;;;12.70;99.90;;;;;;4998716;28;20243;-72
2024/02/07 13:19:34;;;;;;;3.23;2.00;;;12.90;99.90;;;;;;5000382;28;20175;-69
2024/02/07 13:22:00;;;;;;;2.23;1.50;;;13.40;99.90;;;;;;4996217;28;20858;-67
2024/02/07 13:24:25;;;;;;;3.13;2.53;;;13.50;99.90;;;;;;4995860;28;20239;-71
2024/02/07 13:26:51;;;;;;;5.93;4.60;;;13.30;99.90;;;;;;4995676;28;20169;-70
2024/02/07 13:29:18;;;;;;;4.10;2.50;;;13.50;99.90;;;;;;4995538;28;20196;-69
2024/02/07 13:31:44;;;;;;;3.87;2.50;;;13.50;99.90;;;;;;4978883;28;20680;-70
2024/02/07 13:34:14;;;;;;;2.50;1.53;;;13.30;99.90;;;;;;4976256;28;20398;-72
2024/02/07 13:36:40;;;;;;;2.50;2.10;;;13.30;99.90;;;;;;4976196;28;20425;-72
2024/02/07 13:39:06;;;;;;;2.40;1.60;;;13.10;99.90;;;;;;4983062;28;20521;-69
2024/02/07 13:41:32;;;;;;;3.83;1.80;;;13.10;99.90;;;;;;4995598;28;20541;-70
2024/02/07 13:43:59;;;;;;;1.70;1.53;;;13.00;99.90;;;;;;4994778;28;20430;-71
2024/02/07 13:46:24;;;;;;;2.70;1.40;;;12.80;99.90;;;;;;4995858;28;20402;-72
2024/02/07 13:48:52;;;;;;;2.50;1.67;;;12.80;99.90;;;;;;4990958;28;20412;-73
2024/02/07 13:51:18;;;;;;;3.47;1.73;;;12.70;99.90;;;;;;4976357;28;20312;-74
2024/02/07 13:53:43;;;;;;;4.20;1.90;;;12.70;99.90;;;;;;4976210;28;20463;-73